<?xml version="1.0" encoding="UTF-8" standalone="no" ?>
<gpx xmlns="http://www.topografix.com/GPX/1/1" xmlns:xsi="http://www.w3.org/2001/XMLSchema-instance" xsi:schemaLocation="http://www.topografix.com/GPX/1/1 http://www.topografix.com/GPX/1/1/gpx.xsd" version="1.1" creator="VisuGPX - https://www.visugpx.com">
  <metadata>
    <name>Le long de la Têt</name>
  </metadata>
  <trk>
    <name><![CDATA[Course]]></name>
    <trkseg>
      <trkpt lat="42.69418" lon="2.88194">
        <ele>33.038466</ele>
        <time>2025-06-27T19:31:13.478Z</time>
      </trkpt>
      <trkpt lat="42.69429" lon="2.88234">
        <ele>33.038466</ele>
        <time>2025-06-27T19:31:26.546Z</time>
      </trkpt>
      <trkpt lat="42.6944" lon="2.88275">
        <ele>33.038466</ele>
        <time>2025-06-27T19:31:39.598Z</time>
      </trkpt>
      <trkpt lat="42.69455" lon="2.8833">
        <ele>33.090331</ele>
        <time>2025-06-27T19:31:57.425Z</time>
      </trkpt>
      <trkpt lat="42.69489" lon="2.8845">
        <ele>33.383562</ele>
        <time>2025-06-27T19:32:36.705Z</time>
      </trkpt>
      <trkpt lat="42.69489" lon="2.8846">
        <ele>33.406366</ele>
        <time>2025-06-27T19:32:39.785Z</time>
      </trkpt>
      <trkpt lat="42.69531" lon="2.88482">
        <ele>33.544745</ele>
        <time>2025-06-27T19:32:58.303Z</time>
      </trkpt>
      <trkpt lat="42.69567" lon="2.88513">
        <ele>33.717175</ele>
        <time>2025-06-27T19:33:16.456Z</time>
      </trkpt>
      <trkpt lat="42.69585" lon="2.88536">
        <ele>33.827626</ele>
        <time>2025-06-27T19:33:26.695Z</time>
      </trkpt>
      <trkpt lat="42.69595" lon="2.88553">
        <ele>33.900494</ele>
        <time>2025-06-27T19:33:33.344Z</time>
      </trkpt>
      <trkpt lat="42.69636" lon="2.88639">
        <ele>34.240837</ele>
        <time>2025-06-27T19:34:04.550Z</time>
      </trkpt>
      <trkpt lat="42.69633" lon="2.88645">
        <ele>34.263714</ele>
        <time>2025-06-27T19:34:06.647Z</time>
      </trkpt>
      <trkpt lat="42.69618" lon="2.88673">
        <ele>34.378094</ele>
        <time>2025-06-27T19:34:17.221Z</time>
      </trkpt>
      <trkpt lat="42.69616" lon="2.88676">
        <ele>34.393408</ele>
        <time>2025-06-27T19:34:18.633Z</time>
      </trkpt>
      <trkpt lat="42.69615" lon="2.88679">
        <ele>34.403983</ele>
        <time>2025-06-27T19:34:19.612Z</time>
      </trkpt>
      <trkpt lat="42.69617" lon="2.88695">
        <ele>34.417167</ele>
        <time>2025-06-27T19:34:24.487Z</time>
      </trkpt>
      <trkpt lat="42.69622" lon="2.88697">
        <ele>34.420326</ele>
        <time>2025-06-27T19:34:26.828Z</time>
      </trkpt>
      <trkpt lat="42.69622" lon="2.88699">
        <ele>34.421379</ele>
        <time>2025-06-27T19:34:27.581Z</time>
      </trkpt>
      <trkpt lat="42.69634" lon="2.88705">
        <ele>34.428451</ele>
        <time>2025-06-27T19:34:32.831Z</time>
      </trkpt>
      <trkpt lat="42.6965" lon="2.88722">
        <ele>34.439868</ele>
        <time>2025-06-27T19:34:41.300Z</time>
      </trkpt>
      <trkpt lat="42.69679" lon="2.88782">
        <ele>34.470373</ele>
        <time>2025-06-27T19:35:03.653Z</time>
      </trkpt>
      <trkpt lat="42.69688" lon="2.88789">
        <ele>34.475909</ele>
        <time>2025-06-27T19:35:07.670Z</time>
      </trkpt>
      <trkpt lat="42.69686" lon="2.88792">
        <ele>34.477615</ele>
        <time>2025-06-27T19:35:08.924Z</time>
      </trkpt>
      <trkpt lat="42.69684" lon="2.88797">
        <ele>34.480047</ele>
        <time>2025-06-27T19:35:10.665Z</time>
      </trkpt>
      <trkpt lat="42.69687" lon="2.88809">
        <ele>34.485166</ele>
        <time>2025-06-27T19:35:14.310Z</time>
      </trkpt>
      <trkpt lat="42.69689" lon="2.8882">
        <ele>34.489984</ele>
        <time>2025-06-27T19:35:17.751Z</time>
      </trkpt>
      <trkpt lat="42.69683" lon="2.88823">
        <ele>34.493734</ele>
        <time>2025-06-27T19:35:20.416Z</time>
      </trkpt>
      <trkpt lat="42.69699" lon="2.88881">
        <ele>34.415575</ele>
        <time>2025-06-27T19:35:38.919Z</time>
      </trkpt>
      <trkpt lat="42.69714" lon="2.88938">
        <ele>33.993385</ele>
        <time>2025-06-27T19:35:56.634Z</time>
      </trkpt>
      <trkpt lat="42.69716" lon="2.88942">
        <ele>33.959326</ele>
        <time>2025-06-27T19:35:58.043Z</time>
      </trkpt>
      <trkpt lat="42.69722" lon="2.88964">
        <ele>33.790215</ele>
        <time>2025-06-27T19:36:05.091Z</time>
      </trkpt>
      <trkpt lat="42.69742" lon="2.89012">
        <ele>33.406142</ele>
        <time>2025-06-27T19:36:21.068Z</time>
      </trkpt>
      <trkpt lat="42.69746" lon="2.89021">
        <ele>33.33217</ele>
        <time>2025-06-27T19:36:24.147Z</time>
      </trkpt>
      <trkpt lat="42.69778" lon="2.89096">
        <ele>32.805649</ele>
        <time>2025-06-27T19:36:49.630Z</time>
      </trkpt>
      <trkpt lat="42.69826" lon="2.89184">
        <ele>32.912796</ele>
        <time>2025-06-27T19:37:22.637Z</time>
      </trkpt>
      <trkpt lat="42.69833" lon="2.89195">
        <ele>32.927416</ele>
        <time>2025-06-27T19:37:27.145Z</time>
      </trkpt>
      <trkpt lat="42.69885" lon="2.89237">
        <ele>33.007498</ele>
        <time>2025-06-27T19:37:52.141Z</time>
      </trkpt>
      <trkpt lat="42.70038" lon="2.89365">
        <ele>34.751749</ele>
        <time>2025-06-27T19:39:09.161Z</time>
      </trkpt>
      <trkpt lat="42.70047" lon="2.89369">
        <ele>34.848796</ele>
        <time>2025-06-27T19:39:12.993Z</time>
      </trkpt>
      <trkpt lat="42.70047" lon="2.89373">
        <ele>34.881366</ele>
        <time>2025-06-27T19:39:14.270Z</time>
      </trkpt>
      <trkpt lat="42.70046" lon="2.89387">
        <ele>34.994583</ele>
        <time>2025-06-27T19:39:18.731Z</time>
      </trkpt>
      <trkpt lat="42.70047" lon="2.89396">
        <ele>35.067171</ele>
        <time>2025-06-27T19:39:21.550Z</time>
      </trkpt>
      <trkpt lat="42.70049" lon="2.89416">
        <ele>35.228486</ele>
        <time>2025-06-27T19:39:27.877Z</time>
      </trkpt>
      <trkpt lat="42.70047" lon="2.89429">
        <ele>35.334786</ele>
        <time>2025-06-27T19:39:32.072Z</time>
      </trkpt>
      <trkpt lat="42.70056" lon="2.89432">
        <ele>35.435557</ele>
        <time>2025-06-27T19:39:36.098Z</time>
      </trkpt>
      <trkpt lat="42.70072" lon="2.89436">
        <ele>35.615374</ele>
        <time>2025-06-27T19:39:43.271Z</time>
      </trkpt>
      <trkpt lat="42.70075" lon="2.89436">
        <ele>35.642914</ele>
        <time>2025-06-27T19:39:44.343Z</time>
      </trkpt>
      <trkpt lat="42.70076" lon="2.89442">
        <ele>35.692336</ele>
        <time>2025-06-27T19:39:46.380Z</time>
      </trkpt>
      <trkpt lat="42.70087" lon="2.89485">
        <ele>36.059809</ele>
        <time>2025-06-27T19:40:01.231Z</time>
      </trkpt>
      <trkpt lat="42.70093" lon="2.89518">
        <ele>36.335327</ele>
        <time>2025-06-27T19:40:12.320Z</time>
      </trkpt>
      <trkpt lat="42.70089" lon="2.8957">
        <ele>36.759206</ele>
        <time>2025-06-27T19:40:28.438Z</time>
      </trkpt>
      <trkpt lat="42.7009" lon="2.89583">
        <ele>36.865144</ele>
        <time>2025-06-27T19:40:32.367Z</time>
      </trkpt>
      <trkpt lat="42.70101" lon="2.89618">
        <ele>36.654758</ele>
        <time>2025-06-27T19:40:43.756Z</time>
      </trkpt>
      <trkpt lat="42.70133" lon="2.89725">
        <ele>35.365602</ele>
        <time>2025-06-27T19:41:17.855Z</time>
      </trkpt>
      <trkpt lat="42.70144" lon="2.89761">
        <ele>34.931224</ele>
        <time>2025-06-27T19:41:28.863Z</time>
      </trkpt>
      <trkpt lat="42.70148" lon="2.89772">
        <ele>34.798519</ele>
        <time>2025-06-27T19:41:32.199Z</time>
      </trkpt>
      <trkpt lat="42.70187" lon="2.89761">
        <ele>34.19366</ele>
        <time>2025-06-27T19:41:47.478Z</time>
      </trkpt>
      <trkpt lat="42.70222" lon="2.89751">
        <ele>33.773084</ele>
        <time>2025-06-27T19:42:01.162Z</time>
      </trkpt>
      <trkpt lat="42.70234" lon="2.89747">
        <ele>33.625187</ele>
        <time>2025-06-27T19:42:06.104Z</time>
      </trkpt>
      <trkpt lat="42.70236" lon="2.89762">
        <ele>33.492632</ele>
        <time>2025-06-27T19:42:10.544Z</time>
      </trkpt>
      <trkpt lat="42.70237" lon="2.89772">
        <ele>33.401608</ele>
        <time>2025-06-27T19:42:13.581Z</time>
      </trkpt>
      <trkpt lat="42.70253" lon="2.89754">
        <ele>33.155461</ele>
        <time>2025-06-27T19:42:21.945Z</time>
      </trkpt>
      <trkpt lat="42.70255" lon="2.89753">
        <ele>33.130863</ele>
        <time>2025-06-27T19:42:22.794Z</time>
      </trkpt>
      <trkpt lat="42.70263" lon="2.89765">
        <ele>32.989817</ele>
        <time>2025-06-27T19:42:27.543Z</time>
      </trkpt>
      <trkpt lat="42.70275" lon="2.89771">
        <ele>32.831243</ele>
        <time>2025-06-27T19:42:32.881Z</time>
      </trkpt>
      <trkpt lat="42.70288" lon="2.89825">
        <ele>32.334569</ele>
        <time>2025-06-27T19:42:49.936Z</time>
      </trkpt>
      <trkpt lat="42.70301" lon="2.89819">
        <ele>32.165563</ele>
        <time>2025-06-27T19:42:55.827Z</time>
      </trkpt>
      <trkpt lat="42.70316" lon="2.89812">
        <ele>31.954024</ele>
        <time>2025-06-27T19:43:02.031Z</time>
      </trkpt>
      <trkpt lat="42.70317" lon="2.89821">
        <ele>31.850429</ele>
        <time>2025-06-27T19:43:04.761Z</time>
      </trkpt>
      <trkpt lat="42.70329" lon="2.89872">
        <ele>31.236858</ele>
        <time>2025-06-27T19:43:20.988Z</time>
      </trkpt>
      <trkpt lat="42.70339" lon="2.89915">
        <ele>30.729016</ele>
        <time>2025-06-27T19:43:34.235Z</time>
      </trkpt>
      <trkpt lat="42.70347" lon="2.8996">
        <ele>30.207057</ele>
        <time>2025-06-27T19:43:47.530Z</time>
      </trkpt>
      <trkpt lat="42.70345" lon="2.89975">
        <ele>30.029879</ele>
        <time>2025-06-27T19:43:51.961Z</time>
      </trkpt>
      <trkpt lat="42.70355" lon="2.89984">
        <ele>29.840208</ele>
        <time>2025-06-27T19:43:56.683Z</time>
      </trkpt>
      <trkpt lat="42.70405" lon="2.8998">
        <ele>28.903657</ele>
        <time>2025-06-27T19:44:15.803Z</time>
      </trkpt>
      <trkpt lat="42.70407" lon="2.89987">
        <ele>28.754691</ele>
        <time>2025-06-27T19:44:17.942Z</time>
      </trkpt>
      <trkpt lat="42.7043" lon="2.89991">
        <ele>28.132853</ele>
        <time>2025-06-27T19:44:26.961Z</time>
      </trkpt>
      <trkpt lat="42.70489" lon="2.90001">
        <ele>26.619441</ele>
        <time>2025-06-27T19:44:49.559Z</time>
      </trkpt>
      <trkpt lat="42.70497" lon="2.90023">
        <ele>26.152083</ele>
        <time>2025-06-27T19:44:56.645Z</time>
      </trkpt>
      <trkpt lat="42.70503" lon="2.90019">
        <ele>25.984987</ele>
        <time>2025-06-27T19:44:59.122Z</time>
      </trkpt>
      <trkpt lat="42.70515" lon="2.90063">
        <ele>25.098147</ele>
        <time>2025-06-27T19:45:12.498Z</time>
      </trkpt>
      <trkpt lat="42.70522" lon="2.90076">
        <ele>24.779786</ele>
        <time>2025-06-27T19:45:17.279Z</time>
      </trkpt>
      <trkpt lat="42.70533" lon="2.90109">
        <ele>24.2881</ele>
        <time>2025-06-27T19:45:27.412Z</time>
      </trkpt>
      <trkpt lat="42.70536" lon="2.90135">
        <ele>23.947419</ele>
        <time>2025-06-27T19:45:35.025Z</time>
      </trkpt>
      <trkpt lat="42.70542" lon="2.90152">
        <ele>23.714749</ele>
        <time>2025-06-27T19:45:40.228Z</time>
      </trkpt>
      <trkpt lat="42.70548" lon="2.90161">
        <ele>23.559952</ele>
        <time>2025-06-27T19:45:43.677Z</time>
      </trkpt>
      <trkpt lat="42.70549" lon="2.90159">
        <ele>23.528874</ele>
        <time>2025-06-27T19:45:44.376Z</time>
      </trkpt>
      <trkpt lat="42.70638" lon="2.90065">
        <ele>21.568464</ele>
        <time>2025-06-27T19:46:28.756Z</time>
      </trkpt>
      <trkpt lat="42.70644" lon="2.90058">
        <ele>21.495419</ele>
        <time>2025-06-27T19:46:32.089Z</time>
      </trkpt>
      <trkpt lat="42.7064" lon="2.90037">
        <ele>21.414441</ele>
        <time>2025-06-27T19:46:38.660Z</time>
      </trkpt>
      <trkpt lat="42.70637" lon="2.90049">
        <ele>21.366717</ele>
        <time>2025-06-27T19:46:42.529Z</time>
      </trkpt>
      <trkpt lat="42.70641" lon="2.90061">
        <ele>21.320814</ele>
        <time>2025-06-27T19:46:46.290Z</time>
      </trkpt>
      <trkpt lat="42.70648" lon="2.90082">
        <ele>21.237208</ele>
        <time>2025-06-27T19:46:53.166Z</time>
      </trkpt>
      <trkpt lat="42.70653" lon="2.90096">
        <ele>21.18165</ele>
        <time>2025-06-27T19:46:58.591Z</time>
      </trkpt>
      <trkpt lat="42.70666" lon="2.90142">
        <ele>21.003703</ele>
        <time>2025-06-27T19:47:16.062Z</time>
      </trkpt>
      <trkpt lat="42.70704" lon="2.90254">
        <ele>20.616014</ele>
        <time>2025-06-27T19:47:59.438Z</time>
      </trkpt>
      <trkpt lat="42.70715" lon="2.90275">
        <ele>20.585051</ele>
        <time>2025-06-27T19:48:08.833Z</time>
      </trkpt>
      <trkpt lat="42.70725" lon="2.90307">
        <ele>20.545418</ele>
        <time>2025-06-27T19:48:20.843Z</time>
      </trkpt>
      <trkpt lat="42.70728" lon="2.90329">
        <ele>20.519043</ele>
        <time>2025-06-27T19:48:28.829Z</time>
      </trkpt>
      <trkpt lat="42.70748" lon="2.9039">
        <ele>20.441356</ele>
        <time>2025-06-27T19:48:52.463Z</time>
      </trkpt>
      <trkpt lat="42.70754" lon="2.90424">
        <ele>20.401254</ele>
        <time>2025-06-27T19:49:04.653Z</time>
      </trkpt>
      <trkpt lat="42.70868" lon="2.90763">
        <ele>20.553077</ele>
        <time>2025-06-27T19:51:17.801Z</time>
      </trkpt>
      <trkpt lat="42.70873" lon="2.90795">
        <ele>20.562832</ele>
        <time>2025-06-27T19:51:27.448Z</time>
      </trkpt>
      <trkpt lat="42.70907" lon="2.90905">
        <ele>20.599559</ele>
        <time>2025-06-27T19:52:03.751Z</time>
      </trkpt>
      <trkpt lat="42.70913" lon="2.90915">
        <ele>20.587744</ele>
        <time>2025-06-27T19:52:07.400Z</time>
      </trkpt>
      <trkpt lat="42.70929" lon="2.90933">
        <ele>20.554693</ele>
        <time>2025-06-27T19:52:15.979Z</time>
      </trkpt>
      <trkpt lat="42.70942" lon="2.9096">
        <ele>20.517239</ele>
        <time>2025-06-27T19:52:25.705Z</time>
      </trkpt>
      <trkpt lat="42.70957" lon="2.91011">
        <ele>20.453142</ele>
        <time>2025-06-27T19:52:42.364Z</time>
      </trkpt>
      <trkpt lat="42.70988" lon="2.91134">
        <ele>20.284086</ele>
        <time>2025-06-27T19:53:21.166Z</time>
      </trkpt>
      <trkpt lat="42.70988" lon="2.91145">
        <ele>20.253573</ele>
        <time>2025-06-27T19:53:24.412Z</time>
      </trkpt>
      <trkpt lat="42.71008" lon="2.91224">
        <ele>20.019505</ele>
        <time>2025-06-27T19:53:49.463Z</time>
      </trkpt>
      <trkpt lat="42.71034" lon="2.91315">
        <ele>19.746796</ele>
        <time>2025-06-27T19:54:18.629Z</time>
      </trkpt>
      <trkpt lat="42.71055" lon="2.91378">
        <ele>19.552476</ele>
        <time>2025-06-27T19:54:39.215Z</time>
      </trkpt>
      <trkpt lat="42.71058" lon="2.91389">
        <ele>19.518679</ele>
        <time>2025-06-27T19:54:42.784Z</time>
      </trkpt>
      <trkpt lat="42.71089" lon="2.91488">
        <ele>19.214813</ele>
        <time>2025-06-27T19:55:14.789Z</time>
      </trkpt>
      <trkpt lat="42.71113" lon="2.91573">
        <ele>18.957318</ele>
        <time>2025-06-27T19:55:41.991Z</time>
      </trkpt>
      <trkpt lat="42.712" lon="2.91828">
        <ele>19.047328</ele>
        <time>2025-06-27T19:57:07.468Z</time>
      </trkpt>
      <trkpt lat="42.71307" lon="2.92249">
        <ele>18.151338</ele>
        <time>2025-06-27T19:59:20.880Z</time>
      </trkpt>
      <trkpt lat="42.71424" lon="2.92722">
        <ele>16.460968</ele>
        <time>2025-06-27T20:01:49.764Z</time>
      </trkpt>
      <trkpt lat="42.71498" lon="2.9306">
        <ele>16.301665</ele>
        <time>2025-06-27T20:03:35.460Z</time>
      </trkpt>
      <trkpt lat="42.71531" lon="2.93198">
        <ele>16.754519</ele>
        <time>2025-06-27T20:04:20.635Z</time>
      </trkpt>
      <trkpt lat="42.71537" lon="2.93213">
        <ele>16.833664</ele>
        <time>2025-06-27T20:04:25.824Z</time>
      </trkpt>
      <trkpt lat="42.71544" lon="2.93219">
        <ele>16.890562</ele>
        <time>2025-06-27T20:04:29.519Z</time>
      </trkpt>
      <trkpt lat="42.71573" lon="2.93223">
        <ele>17.085293</ele>
        <time>2025-06-27T20:04:42.259Z</time>
      </trkpt>
      <trkpt lat="42.71584" lon="2.93226">
        <ele>17.158818</ele>
        <time>2025-06-27T20:04:47.017Z</time>
      </trkpt>
      <trkpt lat="42.7159" lon="2.9323">
        <ele>17.199778</ele>
        <time>2025-06-27T20:04:49.696Z</time>
      </trkpt>
      <trkpt lat="42.71595" lon="2.93237">
        <ele>17.246119</ele>
        <time>2025-06-27T20:04:52.666Z</time>
      </trkpt>
      <trkpt lat="42.71596" lon="2.93244">
        <ele>17.285024</ele>
        <time>2025-06-27T20:04:55.186Z</time>
      </trkpt>
      <trkpt lat="42.71592" lon="2.93249">
        <ele>17.318818</ele>
        <time>2025-06-27T20:04:57.349Z</time>
      </trkpt>
      <trkpt lat="42.71589" lon="2.93254">
        <ele>17.351962</ele>
        <time>2025-06-27T20:04:59.476Z</time>
      </trkpt>
      <trkpt lat="42.71587" lon="2.93267">
        <ele>17.417046</ele>
        <time>2025-06-27T20:05:03.667Z</time>
      </trkpt>
      <trkpt lat="42.71591" lon="2.9328">
        <ele>17.48315</ele>
        <time>2025-06-27T20:05:07.919Z</time>
      </trkpt>
      <trkpt lat="42.71597" lon="2.93287">
        <ele>17.535286</ele>
        <time>2025-06-27T20:05:11.268Z</time>
      </trkpt>
      <trkpt lat="42.71607" lon="2.93289">
        <ele>17.598668</ele>
        <time>2025-06-27T20:05:15.341Z</time>
      </trkpt>
      <trkpt lat="42.71618" lon="2.93279">
        <ele>17.689523</ele>
        <time>2025-06-27T20:05:21.123Z</time>
      </trkpt>
      <trkpt lat="42.71621" lon="2.93271">
        <ele>17.736463</ele>
        <time>2025-06-27T20:05:24.074Z</time>
      </trkpt>
      <trkpt lat="42.71628" lon="2.93266">
        <ele>17.783848</ele>
        <time>2025-06-27T20:05:27.050Z</time>
      </trkpt>
      <trkpt lat="42.71647" lon="2.93245">
        <ele>17.907685</ele>
        <time>2025-06-27T20:05:37.092Z</time>
      </trkpt>
      <trkpt lat="42.71658" lon="2.93238">
        <ele>17.870185</ele>
        <time>2025-06-27T20:05:42.032Z</time>
      </trkpt>
      <trkpt lat="42.71675" lon="2.93244">
        <ele>17.816074</ele>
        <time>2025-06-27T20:05:49.199Z</time>
      </trkpt>
      <trkpt lat="42.71686" lon="2.93245">
        <ele>17.781565</ele>
        <time>2025-06-27T20:05:53.760Z</time>
      </trkpt>
      <trkpt lat="42.71728" lon="2.93235">
        <ele>17.650998</ele>
        <time>2025-06-27T20:06:10.964Z</time>
      </trkpt>
      <trkpt lat="42.71797" lon="2.93226">
        <ele>17.435897</ele>
        <time>2025-06-27T20:06:39.432Z</time>
      </trkpt>
      <trkpt lat="42.71814" lon="2.93224">
        <ele>17.384604</ele>
        <time>2025-06-27T20:06:46.204Z</time>
      </trkpt>
      <trkpt lat="42.71901" lon="2.93235">
        <ele>17.10196</ele>
        <time>2025-06-27T20:07:21.779Z</time>
      </trkpt>
      <trkpt lat="42.72014" lon="2.93239">
        <ele>16.786946</ele>
        <time>2025-06-27T20:08:07.947Z</time>
      </trkpt>
      <trkpt lat="42.72072" lon="2.93233">
        <ele>16.805022</ele>
        <time>2025-06-27T20:08:31.480Z</time>
      </trkpt>
      <trkpt lat="42.72079" lon="2.93235">
        <ele>16.807326</ele>
        <time>2025-06-27T20:08:34.491Z</time>
      </trkpt>
      <trkpt lat="42.72072" lon="2.93233">
        <ele>16.809629</ele>
        <time>2025-06-27T20:08:37.495Z</time>
      </trkpt>
      <trkpt lat="42.72014" lon="2.93239">
        <ele>16.827705</ele>
        <time>2025-06-27T20:09:01.278Z</time>
      </trkpt>
      <trkpt lat="42.71901" lon="2.93235">
        <ele>17.099185</ele>
        <time>2025-06-27T20:09:48.491Z</time>
      </trkpt>
      <trkpt lat="42.71814" lon="2.93224">
        <ele>17.38968</ele>
        <time>2025-06-27T20:10:24.806Z</time>
      </trkpt>
      <trkpt lat="42.71797" lon="2.93226">
        <ele>17.439632</ele>
        <time>2025-06-27T20:10:31.695Z</time>
      </trkpt>
      <trkpt lat="42.71728" lon="2.93235">
        <ele>17.517683</ele>
        <time>2025-06-27T20:11:00.799Z</time>
      </trkpt>
      <trkpt lat="42.71686" lon="2.93245">
        <ele>17.565061</ele>
        <time>2025-06-27T20:11:18.549Z</time>
      </trkpt>
      <trkpt lat="42.71675" lon="2.93244">
        <ele>17.577582</ele>
        <time>2025-06-27T20:11:23.200Z</time>
      </trkpt>
      <trkpt lat="42.71658" lon="2.93238">
        <ele>17.597217</ele>
        <time>2025-06-27T20:11:30.428Z</time>
      </trkpt>
      <trkpt lat="42.7165" lon="2.9323">
        <ele>17.607898</ele>
        <time>2025-06-27T20:11:34.288Z</time>
      </trkpt>
      <trkpt lat="42.71646" lon="2.93226">
        <ele>17.614227</ele>
        <time>2025-06-27T20:11:36.604Z</time>
      </trkpt>
      <trkpt lat="42.71639" lon="2.9322">
        <ele>17.62323</ele>
        <time>2025-06-27T20:11:39.868Z</time>
      </trkpt>
      <trkpt lat="42.71604" lon="2.93215">
        <ele>17.457539</ele>
        <time>2025-06-27T20:11:54.132Z</time>
      </trkpt>
      <trkpt lat="42.71597" lon="2.93221">
        <ele>17.39307</ele>
        <time>2025-06-27T20:11:57.375Z</time>
      </trkpt>
      <trkpt lat="42.7159" lon="2.9323">
        <ele>17.312099</ele>
        <time>2025-06-27T20:12:01.414Z</time>
      </trkpt>
      <trkpt lat="42.71584" lon="2.93226">
        <ele>17.2621</ele>
        <time>2025-06-27T20:12:03.946Z</time>
      </trkpt>
      <trkpt lat="42.71573" lon="2.93223">
        <ele>17.172347</ele>
        <time>2025-06-27T20:12:08.420Z</time>
      </trkpt>
      <trkpt lat="42.71544" lon="2.93219">
        <ele>16.934637</ele>
        <time>2025-06-27T20:12:20.275Z</time>
      </trkpt>
      <trkpt lat="42.71537" lon="2.93213">
        <ele>16.865181</ele>
        <time>2025-06-27T20:12:23.707Z</time>
      </trkpt>
      <trkpt lat="42.71531" lon="2.93198">
        <ele>16.768568</ele>
        <time>2025-06-27T20:12:28.524Z</time>
      </trkpt>
      <trkpt lat="42.71498" lon="2.9306">
        <ele>16.18105</ele>
        <time>2025-06-27T20:13:11.276Z</time>
      </trkpt>
      <trkpt lat="42.71424" lon="2.92722">
        <ele>16.510651</ele>
        <time>2025-06-27T20:14:58.597Z</time>
      </trkpt>
      <trkpt lat="42.71307" lon="2.92249">
        <ele>18.123624</ele>
        <time>2025-06-27T20:17:32.201Z</time>
      </trkpt>
      <trkpt lat="42.712" lon="2.91828">
        <ele>18.975598</ele>
        <time>2025-06-27T20:19:48.105Z</time>
      </trkpt>
      <trkpt lat="42.71113" lon="2.91573">
        <ele>19.079921</ele>
        <time>2025-06-27T20:21:12.478Z</time>
      </trkpt>
      <trkpt lat="42.71089" lon="2.91488">
        <ele>19.123329</ele>
        <time>2025-06-27T20:21:40.348Z</time>
      </trkpt>
      <trkpt lat="42.71058" lon="2.91389">
        <ele>19.481036</ele>
        <time>2025-06-27T20:22:13.427Z</time>
      </trkpt>
      <trkpt lat="42.71055" lon="2.91378">
        <ele>19.520821</ele>
        <time>2025-06-27T20:22:17.106Z</time>
      </trkpt>
      <trkpt lat="42.71034" lon="2.91315">
        <ele>19.751133</ele>
        <time>2025-06-27T20:22:38.362Z</time>
      </trkpt>
      <trkpt lat="42.71008" lon="2.91224">
        <ele>20.030515</ele>
        <time>2025-06-27T20:23:08.235Z</time>
      </trkpt>
      <trkpt lat="42.70988" lon="2.91145">
        <ele>20.224975</ele>
        <time>2025-06-27T20:23:33.754Z</time>
      </trkpt>
      <trkpt lat="42.70988" lon="2.91134">
        <ele>20.250325</ele>
        <time>2025-06-27T20:23:37.088Z</time>
      </trkpt>
      <trkpt lat="42.70957" lon="2.91011">
        <ele>20.504372</ele>
        <time>2025-06-27T20:24:16.721Z</time>
      </trkpt>
      <trkpt lat="42.70942" lon="2.9096">
        <ele>20.52675</ele>
        <time>2025-06-27T20:24:33.402Z</time>
      </trkpt>
      <trkpt lat="42.70929" lon="2.90933">
        <ele>20.539826</ele>
        <time>2025-06-27T20:24:43.122Z</time>
      </trkpt>
      <trkpt lat="42.70913" lon="2.90915">
        <ele>20.551366</ele>
        <time>2025-06-27T20:24:51.711Z</time>
      </trkpt>
      <trkpt lat="42.70907" lon="2.90905">
        <ele>20.556231</ele>
        <time>2025-06-27T20:24:55.375Z</time>
      </trkpt>
      <trkpt lat="42.70873" lon="2.90795">
        <ele>20.577379</ele>
        <time>2025-06-27T20:25:31.559Z</time>
      </trkpt>
      <trkpt lat="42.70868" lon="2.90763">
        <ele>20.558864</ele>
        <time>2025-06-27T20:25:41.167Z</time>
      </trkpt>
      <trkpt lat="42.70754" lon="2.90424">
        <ele>20.423722</ele>
        <time>2025-06-27T20:27:53.574Z</time>
      </trkpt>
      <trkpt lat="42.70748" lon="2.9039">
        <ele>20.418622</ele>
        <time>2025-06-27T20:28:05.889Z</time>
      </trkpt>
      <trkpt lat="42.70728" lon="2.90329">
        <ele>20.481941</ele>
        <time>2025-06-27T20:28:29.870Z</time>
      </trkpt>
      <trkpt lat="42.70725" lon="2.90307">
        <ele>20.515051</ele>
        <time>2025-06-27T20:28:38.011Z</time>
      </trkpt>
      <trkpt lat="42.70715" lon="2.90275">
        <ele>20.564805</ele>
        <time>2025-06-27T20:28:50.293Z</time>
      </trkpt>
      <trkpt lat="42.70704" lon="2.90254">
        <ele>20.603674</ele>
        <time>2025-06-27T20:28:59.908Z</time>
      </trkpt>
      <trkpt lat="42.70666" lon="2.90142">
        <ele>20.820784</ele>
        <time>2025-06-27T20:29:43.450Z</time>
      </trkpt>
      <trkpt lat="42.70653" lon="2.90096">
        <ele>21.172175</ele>
        <time>2025-06-27T20:30:01.117Z</time>
      </trkpt>
      <trkpt lat="42.70648" lon="2.90082">
        <ele>21.281886</ele>
        <time>2025-06-27T20:30:06.661Z</time>
      </trkpt>
      <trkpt lat="42.70641" lon="2.90061">
        <ele>21.446983</ele>
        <time>2025-06-27T20:30:13.835Z</time>
      </trkpt>
      <trkpt lat="42.70637" lon="2.90049">
        <ele>21.537628</ele>
        <time>2025-06-27T20:30:17.783Z</time>
      </trkpt>
      <trkpt lat="42.7064" lon="2.90037">
        <ele>21.631869</ele>
        <time>2025-06-27T20:30:21.943Z</time>
      </trkpt>
      <trkpt lat="42.70644" lon="2.90058">
        <ele>21.791777</ele>
        <time>2025-06-27T20:30:28.990Z</time>
      </trkpt>
      <trkpt lat="42.70638" lon="2.90065">
        <ele>21.872297</ele>
        <time>2025-06-27T20:30:32.558Z</time>
      </trkpt>
      <trkpt lat="42.70549" lon="2.90159">
        <ele>23.469355</ele>
        <time>2025-06-27T20:31:21.606Z</time>
      </trkpt>
      <trkpt lat="42.70548" lon="2.90161">
        <ele>23.506251</ele>
        <time>2025-06-27T20:31:22.405Z</time>
      </trkpt>
      <trkpt lat="42.70542" lon="2.90152">
        <ele>23.690029</ele>
        <time>2025-06-27T20:31:26.373Z</time>
      </trkpt>
      <trkpt lat="42.70536" lon="2.90135">
        <ele>23.966259</ele>
        <time>2025-06-27T20:31:32.350Z</time>
      </trkpt>
      <trkpt lat="42.70533" lon="2.90109">
        <ele>24.370721</ele>
        <time>2025-06-27T20:31:41.096Z</time>
      </trkpt>
      <trkpt lat="42.70522" lon="2.90076">
        <ele>24.908457</ele>
        <time>2025-06-27T20:31:52.676Z</time>
      </trkpt>
      <trkpt lat="42.70515" lon="2.90063">
        <ele>25.163544</ele>
        <time>2025-06-27T20:31:58.193Z</time>
      </trkpt>
      <trkpt lat="42.70503" lon="2.90019">
        <ele>25.874126</ele>
        <time>2025-06-27T20:32:13.483Z</time>
      </trkpt>
      <trkpt lat="42.70497" lon="2.90023">
        <ele>26.008012</ele>
        <time>2025-06-27T20:32:16.355Z</time>
      </trkpt>
      <trkpt lat="42.70489" lon="2.90001">
        <ele>26.421533</ele>
        <time>2025-06-27T20:32:24.365Z</time>
      </trkpt>
      <trkpt lat="42.7043" lon="2.89991">
        <ele>27.9627</ele>
        <time>2025-06-27T20:32:50.944Z</time>
      </trkpt>
      <trkpt lat="42.70407" lon="2.89987">
        <ele>28.595942</ele>
        <time>2025-06-27T20:33:02.390Z</time>
      </trkpt>
      <trkpt lat="42.70405" lon="2.8998">
        <ele>28.747641</ele>
        <time>2025-06-27T20:33:05.210Z</time>
      </trkpt>
      <trkpt lat="42.70355" lon="2.89984">
        <ele>30.066088</ele>
        <time>2025-06-27T20:33:28.426Z</time>
      </trkpt>
      <trkpt lat="42.70345" lon="2.89975">
        <ele>30.389402</ele>
        <time>2025-06-27T20:33:34.050Z</time>
      </trkpt>
      <trkpt lat="42.70347" lon="2.8996">
        <ele>30.69142</ele>
        <time>2025-06-27T20:33:39.303Z</time>
      </trkpt>
      <trkpt lat="42.70339" lon="2.89915">
        <ele>31.158561</ele>
        <time>2025-06-27T20:33:54.205Z</time>
      </trkpt>
      <trkpt lat="42.70329" lon="2.89872">
        <ele>31.423937</ele>
        <time>2025-06-27T20:34:08.105Z</time>
      </trkpt>
      <trkpt lat="42.70317" lon="2.89821">
        <ele>31.744561</ele>
        <time>2025-06-27T20:34:24.572Z</time>
      </trkpt>
      <trkpt lat="42.70316" lon="2.89812">
        <ele>31.798695</ele>
        <time>2025-06-27T20:34:27.359Z</time>
      </trkpt>
      <trkpt lat="42.70301" lon="2.89819">
        <ele>31.921663</ele>
        <time>2025-06-27T20:34:33.655Z</time>
      </trkpt>
      <trkpt lat="42.70288" lon="2.89825">
        <ele>32.036235</ele>
        <time>2025-06-27T20:34:39.476Z</time>
      </trkpt>
      <trkpt lat="42.70275" lon="2.89771">
        <ele>32.37294</ele>
        <time>2025-06-27T20:34:56.726Z</time>
      </trkpt>
      <trkpt lat="42.70263" lon="2.89765">
        <ele>32.554396</ele>
        <time>2025-06-27T20:35:02.444Z</time>
      </trkpt>
      <trkpt lat="42.70255" lon="2.89753">
        <ele>32.772674</ele>
        <time>2025-06-27T20:35:07.497Z</time>
      </trkpt>
      <trkpt lat="42.70253" lon="2.89754">
        <ele>32.810741</ele>
        <time>2025-06-27T20:35:08.363Z</time>
      </trkpt>
      <trkpt lat="42.70237" lon="2.89772">
        <ele>33.191671</ele>
        <time>2025-06-27T20:35:17.085Z</time>
      </trkpt>
      <trkpt lat="42.70236" lon="2.89762">
        <ele>33.332536</ele>
        <time>2025-06-27T20:35:20.367Z</time>
      </trkpt>
      <trkpt lat="42.70234" lon="2.89747">
        <ele>33.537674</ele>
        <time>2025-06-27T20:35:25.144Z</time>
      </trkpt>
      <trkpt lat="42.70222" lon="2.89751">
        <ele>33.766555</ele>
        <time>2025-06-27T20:35:30.474Z</time>
      </trkpt>
      <trkpt lat="42.70187" lon="2.89761">
        <ele>34.417425</ele>
        <time>2025-06-27T20:35:46.514Z</time>
      </trkpt>
      <trkpt lat="42.70148" lon="2.89772">
        <ele>35.162032</ele>
        <time>2025-06-27T20:36:05.540Z</time>
      </trkpt>
      <trkpt lat="42.70144" lon="2.89761">
        <ele>35.323022</ele>
        <time>2025-06-27T20:36:09.616Z</time>
      </trkpt>
      <trkpt lat="42.70133" lon="2.89725">
        <ele>35.763567</ele>
        <time>2025-06-27T20:36:22.662Z</time>
      </trkpt>
      <trkpt lat="42.70101" lon="2.89618">
        <ele>36.149378</ele>
        <time>2025-06-27T20:36:58.776Z</time>
      </trkpt>
      <trkpt lat="42.7009" lon="2.89583">
        <ele>36.277351</ele>
        <time>2025-06-27T20:37:10.575Z</time>
      </trkpt>
      <trkpt lat="42.70089" lon="2.8957">
        <ele>36.321043</ele>
        <time>2025-06-27T20:37:14.577Z</time>
      </trkpt>
      <trkpt lat="42.70093" lon="2.89518">
        <ele>36.49586</ele>
        <time>2025-06-27T20:37:30.167Z</time>
      </trkpt>
      <trkpt lat="42.70087" lon="2.89485">
        <ele>36.384527</ele>
        <time>2025-06-27T20:37:39.969Z</time>
      </trkpt>
      <trkpt lat="42.70076" lon="2.89442">
        <ele>35.93863</ele>
        <time>2025-06-27T20:37:52.958Z</time>
      </trkpt>
      <trkpt lat="42.70075" lon="2.89436">
        <ele>35.878661</ele>
        <time>2025-06-27T20:37:54.698Z</time>
      </trkpt>
      <trkpt lat="42.70072" lon="2.89436">
        <ele>35.845244</ele>
        <time>2025-06-27T20:37:55.690Z</time>
      </trkpt>
      <trkpt lat="42.70056" lon="2.89432">
        <ele>35.627051</ele>
        <time>2025-06-27T20:38:02.065Z</time>
      </trkpt>
      <trkpt lat="42.70047" lon="2.89429">
        <ele>35.504773</ele>
        <time>2025-06-27T20:38:05.677Z</time>
      </trkpt>
      <trkpt lat="42.70049" lon="2.89416">
        <ele>35.375787</ele>
        <time>2025-06-27T20:38:09.481Z</time>
      </trkpt>
      <trkpt lat="42.70047" lon="2.89396">
        <ele>35.180045</ele>
        <time>2025-06-27T20:38:15.332Z</time>
      </trkpt>
      <trkpt lat="42.70046" lon="2.89387">
        <ele>35.091965</ele>
        <time>2025-06-27T20:38:17.972Z</time>
      </trkpt>
      <trkpt lat="42.70047" lon="2.89373">
        <ele>34.95216</ele>
        <time>2025-06-27T20:38:22.128Z</time>
      </trkpt>
      <trkpt lat="42.70047" lon="2.89369">
        <ele>34.911795</ele>
        <time>2025-06-27T20:38:23.349Z</time>
      </trkpt>
      <trkpt lat="42.70038" lon="2.89365">
        <ele>34.791524</ele>
        <time>2025-06-27T20:38:26.963Z</time>
      </trkpt>
      <trkpt lat="42.69885" lon="2.89237">
        <ele>33.038804</ele>
        <time>2025-06-27T20:39:38.894Z</time>
      </trkpt>
      <trkpt lat="42.69833" lon="2.89195">
        <ele>32.684316</ele>
        <time>2025-06-27T20:40:03.350Z</time>
      </trkpt>
      <trkpt lat="42.69826" lon="2.89184">
        <ele>32.73011</ele>
        <time>2025-06-27T20:40:07.845Z</time>
      </trkpt>
      <trkpt lat="42.69778" lon="2.89096">
        <ele>33.065724</ele>
        <time>2025-06-27T20:40:40.876Z</time>
      </trkpt>
      <trkpt lat="42.69746" lon="2.89021">
        <ele>33.331816</ele>
        <time>2025-06-27T20:41:08.170Z</time>
      </trkpt>
      <trkpt lat="42.69742" lon="2.89012">
        <ele>33.364124</ele>
        <time>2025-06-27T20:41:11.521Z</time>
      </trkpt>
      <trkpt lat="42.69722" lon="2.88964">
        <ele>33.658309</ele>
        <time>2025-06-27T20:41:28.900Z</time>
      </trkpt>
      <trkpt lat="42.69716" lon="2.88942">
        <ele>33.795623</ele>
        <time>2025-06-27T20:41:36.491Z</time>
      </trkpt>
      <trkpt lat="42.69714" lon="2.88938">
        <ele>33.823278</ele>
        <time>2025-06-27T20:41:38.015Z</time>
      </trkpt>
      <trkpt lat="42.69699" lon="2.88881">
        <ele>34.166086</ele>
        <time>2025-06-27T20:41:56.861Z</time>
      </trkpt>
      <trkpt lat="42.69683" lon="2.88823">
        <ele>34.52254</ele>
        <time>2025-06-27T20:42:16.314Z</time>
      </trkpt>
      <trkpt lat="42.69689" lon="2.8882">
        <ele>34.573591</ele>
        <time>2025-06-27T20:42:19.059Z</time>
      </trkpt>
      <trkpt lat="42.69687" lon="2.88809">
        <ele>34.639175</ele>
        <time>2025-06-27T20:42:22.610Z</time>
      </trkpt>
      <trkpt lat="42.69684" lon="2.88797">
        <ele>34.708869</ele>
        <time>2025-06-27T20:42:26.334Z</time>
      </trkpt>
      <trkpt lat="42.69686" lon="2.88792">
        <ele>34.741971</ele>
        <time>2025-06-27T20:42:28.090Z</time>
      </trkpt>
      <trkpt lat="42.69688" lon="2.88789">
        <ele>34.765194</ele>
        <time>2025-06-27T20:42:29.320Z</time>
      </trkpt>
      <trkpt lat="42.69679" lon="2.88782">
        <ele>34.749658</ele>
        <time>2025-06-27T20:42:33.310Z</time>
      </trkpt>
      <trkpt lat="42.6965" lon="2.88722">
        <ele>34.54063</ele>
        <time>2025-06-27T20:42:55.059Z</time>
      </trkpt>
      <trkpt lat="42.69634" lon="2.88705">
        <ele>34.462404</ele>
        <time>2025-06-27T20:43:03.136Z</time>
      </trkpt>
      <trkpt lat="42.69622" lon="2.88699">
        <ele>34.413942</ele>
        <time>2025-06-27T20:43:08.130Z</time>
      </trkpt>
      <trkpt lat="42.69622" lon="2.88697">
        <ele>34.406725</ele>
        <time>2025-06-27T20:43:08.855Z</time>
      </trkpt>
      <trkpt lat="42.69617" lon="2.88695">
        <ele>34.38508</ele>
        <time>2025-06-27T20:43:11.092Z</time>
      </trkpt>
      <trkpt lat="42.69615" lon="2.88679">
        <ele>34.34002</ele>
        <time>2025-06-27T20:43:15.745Z</time>
      </trkpt>
      <trkpt lat="42.69616" lon="2.88676">
        <ele>34.330911</ele>
        <time>2025-06-27T20:43:16.699Z</time>
      </trkpt>
      <trkpt lat="42.69618" lon="2.88673">
        <ele>34.317721</ele>
        <time>2025-06-27T20:43:18.049Z</time>
      </trkpt>
      <trkpt lat="42.69633" lon="2.88645">
        <ele>34.219202</ele>
        <time>2025-06-27T20:43:28.259Z</time>
      </trkpt>
      <trkpt lat="42.69636" lon="2.88639">
        <ele>34.199497</ele>
        <time>2025-06-27T20:43:30.304Z</time>
      </trkpt>
      <trkpt lat="42.69595" lon="2.88553">
        <ele>33.891174</ele>
        <time>2025-06-27T20:44:00.886Z</time>
      </trkpt>
      <trkpt lat="42.69585" lon="2.88536">
        <ele>33.822853</ele>
        <time>2025-06-27T20:44:07.439Z</time>
      </trkpt>
      <trkpt lat="42.69567" lon="2.88513">
        <ele>33.719294</ele>
        <time>2025-06-27T20:44:17.300Z</time>
      </trkpt>
      <trkpt lat="42.69531" lon="2.88482">
        <ele>33.535366</ele>
        <time>2025-06-27T20:44:34.827Z</time>
      </trkpt>
      <trkpt lat="42.69489" lon="2.8846">
        <ele>33.345628</ele>
        <time>2025-06-27T20:44:53.025Z</time>
      </trkpt>
      <trkpt lat="42.69489" lon="2.8845">
        <ele>33.314359</ele>
        <time>2025-06-27T20:44:56.031Z</time>
      </trkpt>
      <trkpt lat="42.69455" lon="2.8833">
        <ele>33.313133</ele>
        <time>2025-06-27T20:45:34.564Z</time>
      </trkpt>
      <trkpt lat="42.6944" lon="2.88275">
        <ele>33.313133</ele>
        <time>2025-06-27T20:45:52.351Z</time>
      </trkpt>
      <trkpt lat="42.69429" lon="2.88234">
        <ele>33.313133</ele>
        <time>2025-06-27T20:46:05.330Z</time>
      </trkpt>
      <trkpt lat="42.69418" lon="2.88194">
        <ele>33.313133</ele>
        <time>2025-06-27T20:46:18.238Z</time>
      </trkpt>
    </trkseg>
  </trk>
</gpx>